Time;durP1;ratioP1;P1;durP2;ratioP2;P2;SDS_P1;SDS_P2;PMS_P1;PMS_P2;Temp;Humidity;BMP_temperature;BMP_pressure;BME280_temperature;BME280_humidity;BME280_pressure;Samples;Min_cycle;Max_cycle;Signal;HPM_P1;HPM_P2
2022/09/02 00:00:53;;;;;;;20.68;12.40;;;;;;;12.44;54.47;99778.03;1719088;83;21090;-45
2022/09/02 00:03:20;;;;;;;22.32;12.85;;;;;;;12.44;54.55;99777.43;1718677;82;20925;-45
2022/09/02 00:05:47;;;;;;;21.27;12.47;;;;;;;12.43;55.12;99779.17;1718706;83;21079;-45
2022/09/02 00:08:16;;;;;;;21.25;12.45;;;;;;;12.42;55.47;99778.95;1718459;83;20977;-45
2022/09/02 00:10:43;;;;;;;22.80;12.63;;;;;;;12.41;55.98;99782.24;1718642;83;21069;-45
2022/09/02 00:13:13;;;;;;;24.67;12.78;;;;;;;12.39;56.12;99781.80;1718563;83;21128;-45
2022/09/02 00:15:43;;;;;;;18.75;11.63;;;;;;;12.35;56.51;99780.95;1718796;83;20976;-45
2022/09/02 00:18:14;;;;;;;22.52;13.20;;;;;;;12.34;57.26;99786.20;1719012;83;20929;-45
2022/09/02 00:20:41;;;;;;;21.17;13.03;;;;;;;12.35;57.25;99782.89;1717694;83;21029;-45
2022/09/02 00:23:08;;;;;;;23.15;13.58;;;;;;;12.33;57.16;99790.06;1718772;83;21012;-45
2022/09/02 00:25:36;;;;;;;22.25;12.53;;;;;;;12.31;57.24;99790.98;1718823;83;21230;-45
2022/09/02 00:28:04;;;;;;;21.57;12.98;;;;;;;12.31;57.39;99792.91;1718879;83;21008;-45
2022/09/02 00:30:32;;;;;;;24.27;12.23;;;;;;;12.31;57.32;99797.78;1718555;81;21087;-45
2022/09/02 00:32:58;;;;;;;21.05;13.00;;;;;;;12.29;57.01;99793.30;1718631;83;20976;-45
2022/09/02 00:35:27;;;;;;;24.15;13.43;;;;;;;12.26;56.98;99800.80;1718739;83;20985;-45
2022/09/02 00:37:54;;;;;;;22.98;12.88;;;;;;;12.24;56.96;99803.67;1718684;83;21084;-45
2022/09/02 00:40:22;;;;;;;20.97;13.08;;;;;;;12.21;56.88;99799.72;1718645;83;20977;-45
2022/09/02 00:42:50;;;;;;;23.07;13.35;;;;;;;12.17;57.08;99797.52;1718532;83;21032;-45
2022/09/02 00:45:18;;;;;;;22.10;12.88;;;;;;;12.11;57.01;99808.45;1718612;83;20989;-45
2022/09/02 00:47:46;;;;;;;20.72;12.47;;;;;;;12.05;56.94;99809.91;1718881;83;21111;-45
2022/09/02 00:50:15;;;;;;;21.37;13.15;;;;;;;11.98;56.79;99807.03;1718665;83;21066;-45
2022/09/02 00:52:56;;;;;;;22.73;13.45;;;;;;;11.95;56.65;99812.63;1718640;83;21016;-45
2022/09/02 00:55:26;;;;;;;22.22;12.82;;;;;;;11.88;56.57;99820.61;1718287;83;21006;-45
2022/09/02 00:58:03;;;;;;;23.15;14.50;;;;;;;11.82;56.37;99817.17;1718228;83;21040;-45
2022/09/02 01:00:41;;;;;;;23.95;13.93;;;;;;;11.71;56.02;99819.05;1719071;83;21637;-45
2022/09/02 01:03:12;;;;;;;23.27;13.00;;;;;;;11.55;55.98;99818.33;1718657;83;23138;-45
2022/09/02 01:05:44;;;;;;;21.65;13.03;;;;;;;11.44;56.30;99829.52;1718828;83;21065;-45
2022/09/02 01:08:15;;;;;;;22.67;13.38;;;;;;;11.36;56.41;99827.79;1718533;83;21590;-45
2022/09/02 01:10:43;;;;;;;17.85;12.15;;;;;;;11.26;56.71;99829.69;1718790;83;21049;-45
2022/09/02 01:13:14;;;;;;;23.65;11.90;;;;;;;11.19;56.94;99826.79;1718520;83;21048;-45
2022/09/02 01:15:46;;;;;;;20.37;12.10;;;;;;;11.11;57.26;99825.05;1718835;83;21926;-45
2022/09/02 01:18:20;;;;;;;17.55;10.78;;;;;;;11.09;57.39;99825.96;1718494;83;21535;-45
2022/09/02 01:20:47;;;;;;;20.48;11.70;;;;;;;11.08;57.42;99836.62;1718670;83;21009;-45
2022/09/02 01:23:16;;;;;;;19.95;11.78;;;;;;;11.09;57.56;99830.03;1718555;83;21041;-45
2022/09/02 01:25:44;;;;;;;16.67;11.17;;;;;;;11.10;57.69;99828.33;1692765;83;21699;-45
2022/09/02 01:28:15;;;;;;;19.05;11.83;;;;;;;11.11;57.88;99825.84;1718578;83;22101;-45
2022/09/02 01:30:47;;;;;;;19.40;11.73;;;;;;;11.14;58.34;99828.41;1718468;83;21597;-45
2022/09/02 01:33:15;;;;;;;17.00;11.33;;;;;;;11.15;58.20;99832.70;1718739;81;20992;-45
2022/09/02 01:35:42;;;;;;;16.77;11.48;;;;;;;11.16;58.29;99834.28;1718867;83;21084;-45
2022/09/02 01:38:09;;;;;;;16.82;10.85;;;;;;;11.17;58.44;99835.87;1713811;83;21087;-45
2022/09/02 01:40:37;;;;;;;20.20;10.90;;;;;;;11.18;58.59;99841.52;1718783;83;21120;-45
2022/09/02 01:46:02;;;;;;;19.60;11.73;;;;;;;11.24;59.06;99834.09;1805123;78;22628;-44
2022/09/02 01:48:30;;;;;;;18.42;11.05;;;;;;;11.20;59.27;99837.87;1779683;80;21017;-44
2022/09/02 01:51:01;;;;;;;20.25;11.70;;;;;;;11.21;59.36;99845.67;1779578;80;21240;-44
2022/09/02 01:53:28;;;;;;;21.25;12.47;;;;;;;11.26;59.66;99849.47;1779419;80;20958;-44
2022/09/02 01:55:56;;;;;;;17.50;11.00;;;;;;;11.27;60.06;99848.91;1779453;80;20962;-44
2022/09/02 01:58:23;;;;;;;20.17;11.43;;;;;;;11.32;60.33;99851.35;1779086;80;20978;-44
2022/09/02 02:00:51;;;;;;;18.40;11.10;;;;;;;11.40;60.24;99853.09;1805845;79;21009;-44
2022/09/02 02:03:19;;;;;;;18.98;11.80;;;;;;;11.52;59.96;99859.75;1805800;79;21126;-44
2022/09/02 02:05:46;;;;;;;17.12;11.40;;;;;;;11.56;59.88;99853.86;1805735;79;21517;-44
2022/09/02 02:08:15;;;;;;;20.62;11.75;;;;;;;11.62;59.83;99859.77;1805682;79;20998;-44
2022/09/02 02:10:42;;;;;;;19.92;11.95;;;;;;;11.65;59.77;99857.16;1758340;79;21073;-44
2022/09/02 02:13:10;;;;;;;23.38;12.78;;;;;;;11.70;59.75;99861.53;1805826;79;21017;-44
2022/09/02 02:15:40;;;;;;;22.45;12.00;;;;;;;11.73;59.45;99858.13;1805842;79;21121;-44
2022/09/02 02:18:08;;;;;;;23.42;12.60;;;;;;;11.76;59.34;99857.43;1805763;79;21015;-44
2022/09/02 02:20:36;;;;;;;25.90;13.80;;;;;;;11.78;59.15;99859.20;1806259;79;21480;-44
2022/09/02 02:23:04;;;;;;;31.87;13.95;;;;;;;11.79;58.69;99868.15;1806020;79;21500;-44
2022/09/02 02:25:32;;;;;;;24.17;14.63;;;;;;;11.80;58.36;99869.16;1806688;79;21253;-44
2022/09/02 02:27:59;;;;;;;23.25;13.93;;;;;;;11.81;58.08;99863.95;1806011;79;21329;-44
2022/09/02 02:30:27;;;;;;;25.35;15.13;;;;;;;11.79;58.07;99866.22;1805736;79;20959;-44
2022/09/02 02:32:54;;;;;;;27.32;15.93;;;;;;;11.79;57.94;99861.36;1805863;79;20959;-44
2022/09/02 02:35:21;;;;;;;27.85;16.12;;;;;;;11.78;57.71;99863.28;1805715;79;21358;-44
2022/09/02 02:37:49;;;;;;;32.35;17.98;;;;;;;11.77;57.61;99864.42;1806056;79;21479;-44
2022/09/02 02:40:19;;;;;;;33.05;18.70;;;;;;;11.75;57.57;99864.80;1758081;79;21199;-44
2022/09/02 02:42:47;;;;;;;37.80;20.05;;;;;;;11.73;57.35;99861.63;1758366;79;20955;-44
2022/09/02 02:45:15;;;;;;;37.50;20.72;;;;;;;11.72;57.41;99861.41;1801099;79;21015;-44
2022/09/02 02:47:46;;;;;;;36.83;21.65;;;;;;;11.72;57.25;99856.52;1797455;79;21303;-44
2022/09/02 02:50:16;;;;;;;36.05;21.73;;;;;;;11.69;57.22;99866.17;1797846;79;21078;-44
2022/09/02 02:52:43;;;;;;;37.25;22.73;;;;;;;11.66;57.33;99862.81;1797822;79;21063;-44
2022/09/02 02:55:11;;;;;;;36.10;21.87;;;;;;;11.64;57.24;99862.38;1797290;79;21015;-44
2022/09/02 02:57:39;;;;;;;40.30;23.27;;;;;;;11.63;57.37;99866.22;1797199;79;21015;-44
2022/09/02 03:00:13;;;;;;;41.23;24.23;;;;;;;11.62;57.39;99863.28;1797119;79;21596;-44
2022/09/02 03:02:41;;;;;;;39.78;23.62;;;;;;;11.63;57.33;99868.94;1797159;79;21525;-44
2022/09/02 03:05:10;;;;;;;42.78;25.12;;;;;;;11.62;57.40;99874.71;1796858;79;23124;-44
2022/09/02 03:07:36;;;;;;;49.13;25.82;;;;;;;11.62;57.31;99874.14;1796789;79;20963;-44
2022/09/02 03:10:11;;;;;;;50.48;27.25;;;;;;;11.62;57.31;99874.71;1796895;79;21601;-44
2022/09/02 03:12:38;;;;;;;42.30;25.35;;;;;;;11.63;57.42;99878.44;1797256;79;21035;-44
2022/09/02 03:15:08;;;;;;;45.10;24.45;;;;;;;11.63;57.19;99879.80;1797550;79;21528;-44
2022/09/02 03:17:35;;;;;;;44.08;24.52;;;;;;;11.63;57.17;99881.73;1748074;79;21255;-44
2022/09/02 03:20:03;;;;;;;43.87;24.85;;;;;;;11.62;57.17;99885.01;1797157;79;21016;-44
2022/09/02 03:22:32;;;;;;;41.83;23.80;;;;;;;11.62;57.19;99881.50;1797178;79;21376;-44
2022/09/02 03:24:59;;;;;;;43.23;25.62;;;;;;;11.60;57.33;99887.30;1797190;79;21501;-44
2022/09/02 03:27:25;;;;;;;43.68;23.80;;;;;;;11.58;57.26;99892.29;1797053;79;21035;-44
2022/09/02 03:29:52;;;;;;;37.23;23.32;;;;;;;11.57;57.43;99894.78;1796946;79;21191;-44
2022/09/02 03:32:19;;;;;;;38.23;22.60;;;;;;;11.54;57.57;99898.22;1796656;79;21003;-44
2022/09/02 03:34:47;;;;;;;33.55;20.72;;;;;;;11.53;57.62;99905.34;1796877;79;20970;-44
2022/09/02 03:37:15;;;;;;;39.38;20.40;;;;;;;11.49;57.64;99907.19;1796851;79;21079;-44
2022/09/02 03:39:42;;;;;;;38.75;21.52;;;;;;;11.45;57.51;99907.12;1796930;79;21023;-44
2022/09/02 03:42:09;;;;;;;39.75;21.97;;;;;;;11.39;57.56;99916.66;1796970;79;21531;-44
2022/09/02 03:44:36;;;;;;;37.03;21.45;;;;;;;11.33;57.95;99913.41;1797546;79;21054;-44
2022/09/02 03:47:03;;;;;;;34.75;20.55;;;;;;;11.33;58.38;99918.84;1802727;79;21011;-44
2022/09/02 03:49:32;;;;;;;37.45;20.97;;;;;;;11.34;58.76;99919.07;1802620;79;20936;-44
2022/09/02 03:52:00;;;;;;;43.75;22.80;;;;;;;11.38;58.83;99923.78;1802752;79;21062;-44
2022/09/02 03:54:28;;;;;;;38.05;22.55;;;;;;;11.41;58.96;99923.89;1802785;79;21082;-44
2022/09/02 03:56:57;;;;;;;41.40;23.83;;;;;;;11.44;58.99;99929.17;1802449;79;21022;-44
2022/09/02 03:59:24;;;;;;;44.45;23.62;;;;;;;11.47;58.79;99936.08;1795104;79;20957;-44
2022/09/02 04:01:51;;;;;;;45.12;24.45;;;;;;;11.50;58.83;99934.00;1783309;79;20969;-44
2022/09/02 04:04:18;;;;;;;46.33;24.00;;;;;;;11.55;58.79;99938.38;1783341;79;21068;-44
2022/09/02 04:06:47;;;;;;;38.83;23.83;;;;;;;11.59;58.60;99944.11;1783319;79;21579;-44
2022/09/02 04:09:14;;;;;;;41.02;23.45;;;;;;;11.61;58.73;99944.56;1782971;79;21025;-44
2022/09/02 04:11:42;;;;;;;39.75;22.87;;;;;;;11.65;58.49;99945.99;1783209;80;21012;-44
2022/09/02 04:14:10;;;;;;;40.43;22.93;;;;;;;11.68;58.44;99942.56;1783084;80;20961;-44
2022/09/02 04:16:37;;;;;;;38.40;21.93;;;;;;;11.72;58.56;99946.97;1783486;80;21029;-44
2022/09/02 04:19:08;;;;;;;37.35;21.95;;;;;;;11.79;58.59;99947.72;1778476;80;21091;-44
2022/09/02 04:21:37;;;;;;;37.90;21.87;;;;;;;11.86;58.41;99945.74;1783544;80;21535;-44
2022/09/02 04:24:08;;;;;;;37.88;20.85;;;;;;;11.92;58.24;99947.02;1783712;79;20925;-44
2022/09/02 04:26:36;;;;;;;38.05;21.62;;;;;;;11.97;58.15;99956.27;1783586;80;21626;-44
2022/09/02 04:29:04;;;;;;;36.10;21.73;;;;;;;11.99;57.99;99958.06;1783600;79;21555;-44
2022/09/02 04:31:32;;;;;;;35.73;21.70;;;;;;;12.03;57.91;99960.29;1783444;80;21802;-44
2022/09/02 04:33:59;;;;;;;33.92;20.50;;;;;;;12.10;57.76;99964.54;1783225;79;21432;-44
2022/09/02 04:36:27;;;;;;;36.53;20.40;;;;;;;12.14;57.65;99966.76;1783259;80;21008;-44
2022/09/02 04:38:56;;;;;;;35.92;20.68;;;;;;;12.19;57.49;99965.13;1783081;80;21515;-44
2022/09/02 04:41:29;;;;;;;39.35;21.57;;;;;;;12.26;57.58;99967.19;1762058;80;21025;-44
2022/09/02 04:43:58;;;;;;;38.40;21.27;;;;;;;12.29;57.22;99967.30;1783586;80;21069;-44
2022/09/02 04:46:27;;;;;;;34.20;21.25;;;;;;;12.28;57.30;99973.86;1787949;79;20978;-44
2022/09/02 04:48:55;;;;;;;34.53;20.27;;;;;;;12.31;57.40;99971.78;1789119;79;20944;-44
2022/09/02 04:51:24;;;;;;;37.40;20.48;;;;;;;12.34;57.37;99973.02;1788885;80;21012;-44
2022/09/02 04:53:53;;;;;;;31.23;18.75;;;;;;;12.37;57.55;99966.86;1789271;80;21013;-44
2022/09/02 04:56:23;;;;;;;28.30;15.58;;;;;;;12.41;57.79;99975.88;1789045;80;21303;-44
2022/09/02 04:58:50;;;;;;;23.90;14.93;;;;;;;12.42;57.89;99976.89;1789144;80;20995;-44
2022/09/02 05:01:23;;;;;;;27.37;14.28;;;;;;;12.44;57.70;99981.38;1789048;80;20917;-44
2022/09/02 05:03:50;;;;;;;30.02;16.25;;;;;;;12.45;57.81;99982.96;1789173;80;20894;-44
2022/09/02 05:06:25;;;;;;;27.33;16.63;;;;;;;12.44;57.88;99978.66;1789165;80;20977;-44
2022/09/02 05:08:55;;;;;;;37.00;22.13;;;;;;;12.44;58.07;99975.94;1789250;79;21619;-44
2022/09/02 05:11:28;;;;;;;;;;;;;;;12.41;58.18;99983.46;1792410;80;21333;-44
2022/09/02 05:13:58;;;;;;;48.65;27.50;;;;;;;12.44;58.48;99980.62;1789323;80;20166;-44
2022/09/02 05:16:29;;;;;;;72.00;41.23;;;;;;;12.40;59.43;99977.02;1789291;80;20957;-44
2022/09/02 05:18:56;;;;;;;77.17;44.05;;;;;;;12.48;59.29;99977.39;1789090;79;21064;-44
2022/09/02 05:21:25;;;;;;;74.75;43.92;;;;;;;12.63;59.13;99978.67;1789449;80;21770;-44
2022/09/02 05:23:54;;;;;;;91.30;52.05;;;;;;;12.77;59.02;99978.77;1788973;80;20957;-44
2022/09/02 05:26:22;;;;;;;89.32;52.38;;;;;;;12.92;58.65;99980.62;1788958;80;22065;-44
2022/09/02 05:28:51;;;;;;;88.70;52.53;;;;;;;13.06;58.47;99984.40;1788890;80;20957;-44
2022/09/02 05:31:19;;;;;;;93.67;54.00;;;;;;;13.19;58.29;99982.31;1789002;80;20976;-44
2022/09/02 05:33:48;;;;;;;;;;;;;;;13.28;58.10;99981.50;1791774;79;21080;-44
2022/09/02 05:36:19;;;;;;;92.88;54.05;;;;;;;13.37;57.91;99983.41;1788621;79;21555;-44
2022/09/02 05:38:46;;;;;;;90.10;53.23;;;;;;;13.37;58.17;99978.54;1789343;79;20913;-44
2022/09/02 05:41:22;;;;;;;88.50;53.48;;;;;;;13.49;57.97;99985.97;1789066;79;20961;-44
2022/09/02 05:43:51;;;;;;;92.12;52.95;;;;;;;13.63;57.74;99984.05;1789271;80;21033;-44
2022/09/02 05:46:19;;;;;;;95.75;56.58;;;;;;;13.73;57.69;99982.08;1787720;79;21220;-44
2022/09/02 05:49:05;;;;;;;92.03;55.47;;;;;;;13.82;57.53;99988.63;1787289;80;20949;-44
2022/09/02 05:51:48;;;;;;;94.47;54.08;;;;;;;13.93;57.38;99989.59;1786548;79;21281;-44
2022/09/02 05:54:23;;;;;;;89.07;54.90;;;;;;;14.05;57.29;99989.38;1786516;80;21021;-44
2022/09/02 05:56:52;;;;;;;93.03;54.85;;;;;;;14.12;57.02;99994.95;1786790;80;21245;-44
2022/09/02 05:59:21;;;;;;;91.32;54.42;;;;;;;14.22;57.06;99998.98;1787262;80;25643;-44
2022/09/02 06:01:49;;;;;;;87.05;49.63;;;;;;;14.29;57.03;99991.67;1786685;80;20957;-44
2022/09/02 06:04:16;;;;;;;79.62;46.73;;;;;;;14.39;57.11;99997.09;1786629;79;21005;-44
2022/09/02 06:06:45;;;;;;;75.52;44.55;;;;;;;14.49;57.01;99999.76;1786351;79;21013;-44
2022/09/02 06:09:16;;;;;;;59.70;36.38;;;;;;;14.60;56.85;99997.97;1786303;80;20966;-44
2022/09/02 06:11:44;;;;;;;54.80;32.83;;;;;;;14.71;56.77;100002.41;1786488;80;21232;-44
2022/09/02 06:14:17;;;;;;;47.65;29.65;;;;;;;14.83;56.56;100002.73;1786628;80;20886;-44
2022/09/02 06:16:43;;;;;;;39.35;23.15;;;;;;;14.95;55.98;100006.59;1786213;79;20965;-44
2022/09/02 06:19:11;;;;;;;39.83;22.73;;;;;;;15.04;55.55;100002.98;1785823;80;21307;-44
2022/09/02 06:21:39;;;;;;;35.45;22.13;;;;;;;15.14;55.08;100010.52;1786399;80;21045;-44
2022/09/02 06:24:08;;;;;;;33.65;21.40;;;;;;;15.23;55.16;100011.58;1786259;80;23168;-44
2022/09/02 06:26:37;;;;;;;35.90;20.60;;;;;;;15.31;54.68;100012.42;1786706;79;20960;-44
2022/09/02 06:29:06;;;;;;;31.40;17.50;;;;;;;15.39;54.34;100006.67;1786738;79;21522;-44
2022/09/02 06:31:33;;;;;;;26.07;17.27;;;;;;;15.47;54.23;100005.57;1786455;80;21029;-44
2022/09/02 06:34:02;;;;;;;29.12;16.90;;;;;;;15.57;53.94;100009.59;1786588;79;21017;-44
2022/09/02 06:36:30;;;;;;;19.82;12.73;;;;;;;15.71;53.67;100014.39;1786756;80;21346;-44
2022/09/02 06:38:59;;;;;;;20.57;12.90;;;;;;;15.85;52.81;100011.20;1786806;79;21523;-44
2022/09/02 06:41:29;;;;;;;18.80;10.08;;;;;;;15.95;52.14;100011.86;1787038;80;21535;-44
2022/09/02 06:43:57;;;;;;;;;;;;;;;16.07;51.16;100004.70;1769785;80;21040;-44
2022/09/02 06:46:29;;;;;;;12.78;6.45;;;;;;;16.21;49.98;100006.78;1779543;80;20159;-44
2022/09/02 06:48:57;;;;;;;13.13;7.60;;;;;;;16.23;49.55;100012.63;1772588;81;21753;-44
2022/09/02 06:51:33;;;;;;;15.95;9.05;;;;;;;16.40;48.84;100016.66;1772408;79;21480;-44
2022/09/02 06:54:01;;;;;;;12.25;8.43;;;;;;;16.55;48.43;100017.52;1772532;79;20961;-44
2022/09/02 06:56:29;;;;;;;13.40;8.03;;;;;;;16.70;48.25;100017.22;1772616;79;21460;-44
2022/09/02 06:58:57;;;;;;;14.13;8.28;;;;;;;16.87;47.79;100019.27;1772581;81;20990;-44
2022/09/02 07:01:28;;;;;;;11.10;6.37;;;;;;;17.03;45.91;100029.10;1772059;80;21229;-44
2022/09/02 07:06:46;;;;;;;13.25;6.12;;;;;;;17.25;44.88;100026.61;1772710;79;21033;-44
2022/09/02 07:09:16;;;;;;;14.55;6.83;;;;;;;17.37;44.24;100031.16;1772984;81;20926;-44
2022/09/02 07:11:46;;;;;;;10.23;5.70;;;;;;;17.52;44.27;100027.08;1772785;79;21041;-45
2022/09/02 07:14:18;;;;;;;12.37;6.80;;;;;;;17.66;42.87;100030.65;1772746;79;21137;-45
2022/09/02 07:16:50;;;;;;;11.65;6.33;;;;;;;17.79;43.00;100033.19;1772585;80;20962;-44
2022/09/02 07:19:19;;;;;;;7.92;5.40;;;;;;;17.94;42.61;100031.82;1772810;81;20982;-44
2022/09/02 07:21:47;;;;;;;11.68;6.50;;;;;;;18.11;41.69;100036.50;1772666;81;21297;-44
2022/09/02 07:24:15;;;;;;;9.95;6.22;;;;;;;18.24;41.70;100036.31;1772782;81;21026;-44
2022/09/02 07:26:42;;;;;;;10.18;6.30;;;;;;;18.40;41.24;100033.91;1772453;79;21231;-44
2022/09/02 07:29:09;;;;;;;9.43;5.37;;;;;;;18.56;40.51;100035.67;1772492;79;21453;-45
2022/09/02 07:31:38;;;;;;;11.57;6.03;;;;;;;18.70;39.13;100034.06;1772485;79;20957;-44
2022/09/02 07:34:06;;;;;;;10.03;6.65;;;;;;;18.85;39.95;100039.70;1772603;81;21507;-44
2022/09/02 07:36:38;;;;;;;8.75;6.15;;;;;;;18.96;39.99;100038.48;1772642;81;21002;-44
2022/09/02 07:39:05;;;;;;;9.10;5.28;;;;;;;19.09;39.43;100040.19;1772246;80;21245;-44
2022/09/02 07:41:32;;;;;;;10.70;6.33;;;;;;;19.16;38.78;100043.50;1772806;81;21022;-44
2022/09/02 07:43:59;;;;;;;9.53;5.90;;;;;;;19.22;38.76;100034.41;1772546;81;21045;-44
2022/09/02 07:46:31;;;;;;;8.85;5.08;;;;;;;19.32;38.22;100025.33;1772381;80;21579;-45
2022/09/02 07:49:04;;;;;;;10.28;4.85;;;;;;;19.45;38.05;100031.97;1772561;81;20989;-44
2022/09/02 07:51:32;;;;;;;10.20;5.85;;;;;;;19.62;37.34;100029.48;1772515;81;21160;-44
2022/09/02 07:54:01;;;;;;;7.67;3.75;;;;;;;19.76;36.81;100023.87;1772462;81;21799;-44
2022/09/02 07:56:28;;;;;;;4.90;2.80;;;;;;;19.89;36.03;100022.22;1772490;81;21072;-44
2022/09/02 07:58:56;;;;;;;8.73;2.27;;;;;;;19.95;35.19;100024.11;1772493;81;21026;-45
2022/09/02 08:01:23;;;;;;;3.90;2.10;;;;;;;19.99;34.54;100022.73;1772556;79;21018;-44
2022/09/02 08:03:52;;;;;;;5.20;2.27;;;;;;;19.99;34.61;100024.10;1772631;81;21277;-44
2022/09/02 08:06:19;;;;;;;6.30;3.10;;;;;;;20.01;34.77;100020.92;1772296;79;21534;-44
2022/09/02 08:08:46;;;;;;;6.12;3.47;;;;;;;20.11;34.59;100025.55;1772723;81;20996;-45
2022/09/02 08:11:15;;;;;;;7.72;5.10;;;;;;;20.13;34.39;100030.06;1767950;81;21021;-45
2022/09/02 08:13:43;;;;;;;10.32;4.67;;;;;;;20.08;34.58;100025.78;1772771;81;21049;-45
2022/09/02 08:16:10;;;;;;;7.40;4.28;;;;;;;20.13;34.58;100020.43;1772752;79;21231;-45
2022/09/02 08:18:38;;;;;;;6.60;4.40;;;;;;;20.22;34.52;100021.52;1768020;81;20997;-44
2022/09/02 08:21:05;;;;;;;5.83;4.22;;;;;;;20.37;34.20;100007.05;1772653;81;21014;-45
2022/09/02 08:23:33;;;;;;;7.05;3.85;;;;;;;20.52;34.21;100009.05;1772721;81;21016;-44
2022/09/02 08:26:01;;;;;;;6.25;3.42;;;;;;;20.65;33.77;100008.09;1772780;81;21515;-45
2022/09/02 08:28:30;;;;;;;6.25;3.05;;;;;;;20.78;33.00;100005.57;1772782;79;21083;-44
2022/09/02 08:30:58;;;;;;;4.70;2.60;;;;;;;20.77;33.44;100011.68;1772662;81;20974;-45
2022/09/02 08:33:25;;;;;;;5.22;2.45;;;;;;;20.81;32.72;100011.66;1772464;79;21006;-44
2022/09/02 08:35:52;;;;;;;4.28;2.65;;;;;;;20.91;32.54;100008.58;1772502;81;21034;-45
2022/09/02 08:38:21;;;;;;;3.15;2.40;;;;;;;21.06;33.06;100005.80;1772521;81;21089;-44
2022/09/02 08:40:49;;;;;;;3.60;2.15;;;;;;;21.16;31.79;100011.20;1772543;81;21134;-45
2022/09/02 08:43:39;;;;;;;2.75;1.87;;;;;;;21.15;31.17;100006.13;1772469;81;20942;-45
2022/09/02 08:46:09;;;;;;;3.12;2.30;;;;;;;21.08;31.12;100008.34;1774251;79;21567;-45
2022/09/02 08:48:56;;;;;;;4.22;2.10;;;;;;;21.07;32.25;100006.77;1788986;80;21075;-45
2022/09/02 08:51:42;;;;;;;3.05;2.20;;;;;;;21.15;32.44;100006.91;1788904;80;21060;-45
2022/09/02 08:54:31;;;;;;;3.42;2.25;;;;;;;21.28;31.65;99996.08;1788961;80;21232;-45
2022/09/02 08:56:58;;;;;;;7.05;2.20;;;;;;;21.33;32.42;100003.89;1789016;79;21010;-45
2022/09/02 08:59:27;;;;;;;4.58;2.10;;;;;;;21.48;32.08;100005.84;1789116;79;21495;-45
2022/09/02 09:02:29;;;;;;;5.30;2.65;;;;;;;21.66;31.79;100004.95;1789046;80;21020;-45
2022/09/02 09:05:14;;;;;;;3.98;2.10;;;;;;;21.85;31.69;100002.87;1789109;79;21096;-44
2022/09/02 09:08:15;;;;;;;3.30;2.08;;;;;;;22.06;31.57;100005.30;1789059;80;21202;-45
2022/09/02 09:11:02;;;;;;;4.03;2.70;;;;;;;22.18;29.56;100004.49;1789043;79;20989;-44
2022/09/02 09:13:40;;;;;;;7.28;5.15;;;;;;;22.17;29.84;99997.43;1789324;79;21551;-45
2022/09/02 09:16:41;;;;;;;9.93;6.50;;;;;;;22.17;30.10;99996.05;1789050;79;20894;-45
2022/09/02 09:19:16;;;;;;;10.03;6.75;;;;;;;22.22;30.91;100010.75;1789259;80;21020;-45
2022/09/02 09:21:43;;;;;;;12.07;7.80;;;;;;;22.26;30.30;100004.56;1786546;79;22334;-45
2022/09/02 09:24:27;;;;;;;11.15;7.72;;;;;;;22.26;30.18;100010.09;1789109;79;20945;-45
2022/09/02 09:26:54;;;;;;;12.03;8.45;;;;;;;22.33;30.51;100003.03;1789241;79;21011;-45
2022/09/02 09:29:21;;;;;;;13.38;8.58;;;;;;;22.48;30.57;100002.34;1789201;79;20945;-45
2022/09/02 09:31:51;;;;;;;14.75;8.83;;;;;;;;;;1789222;80;21076;-45
2022/09/02 09:34:18;;;;;;;18.82;9.73;;;;;;;22.69;29.64;100009.45;1789184;79;21080;-45
2022/09/02 09:36:50;;;;;;;20.85;12.85;;;;;;;22.68;29.52;100008.48;1788970;80;20917;-45
2022/09/02 09:39:29;;;;;;;22.60;15.08;;;;;;;22.57;28.95;100008.69;1789047;79;21028;-45
2022/09/02 09:42:12;;;;;;;18.82;13.70;;;;;;;22.56;29.45;100012.64;1789342;80;21036;-45
2022/09/02 09:44:48;;;;;;;22.80;15.40;;;;;;;22.57;28.92;100016.97;1789117;80;21471;-45
2022/09/02 09:47:24;;;;;;;19.00;13.13;;;;;;;22.49;28.57;100013.58;1788866;80;21236;-45
2022/09/02 09:50:12;;;;;;;19.35;14.03;;;;;;;22.42;28.22;100010.16;1789008;79;21461;-45
2022/09/02 09:52:39;;;;;;;24.02;15.85;;;;;;;22.42;27.97;100001.88;1788132;79;20910;-45
2022/09/02 09:55:19;;;;;;;28.23;17.37;;;;;;;22.56;27.45;100006.36;1789003;80;21004;-45
2022/09/02 09:57:47;;;;;;;26.00;17.32;;;;;;;22.69;27.80;100005.30;1789201;79;21570;-45
2022/09/02 10:00:30;;;;;;;26.77;17.82;;;;;;;22.86;28.59;100000.02;1789152;80;21779;-45
2022/09/02 10:03:01;;;;;;;30.50;18.45;;;;;;;22.92;27.74;100001.09;1789046;80;20917;-45
2022/09/02 10:05:36;;;;;;;27.48;18.87;;;;;;;22.73;27.69;99999.72;1789020;80;21660;-45
2022/09/02 10:08:15;;;;;;;31.87;19.98;;;;;;;22.55;28.36;99990.38;1788992;80;20965;-45
2022/09/02 10:11:01;;;;;;;30.70;21.07;;;;;;;22.64;29.10;99993.36;1789366;78;21052;-45
2022/09/02 10:13:33;;;;;;;34.23;21.30;;;;;;;22.90;28.98;99993.03;1783115;80;21843;-45
2022/09/02 10:16:30;;;;;;;30.65;20.20;;;;;;;23.14;28.99;99983.41;1783179;80;21287;-45
2022/09/02 10:19:05;;;;;;;26.25;17.55;;;;;;;23.46;28.17;99981.94;1738425;80;21479;-45
2022/09/02 10:22:07;;;;;;;25.30;15.43;;;;;;;23.85;28.12;99985.14;1783406;80;21011;-45
2022/09/02 10:25:13;;;;;;;26.52;16.42;;;;;;;24.13;26.79;99977.47;1783047;80;21094;-45
2022/09/02 10:27:54;;;;;;;18.70;14.03;;;;;;;24.30;26.80;99985.18;1781654;80;21118;-45
2022/09/02 10:30:23;;;;;;;17.12;12.75;;;;;;;24.41;26.44;99993.36;1783174;80;20925;-46
2022/09/02 10:33:04;;;;;;;17.50;12.00;;;;;;;24.49;25.88;99985.64;1783431;80;20944;-45
2022/09/02 10:35:47;;;;;;;21.60;13.45;;;;;;;24.40;25.10;99982.73;1783331;80;20949;-45
2022/09/02 10:38:40;;;;;;;18.45;12.85;;;;;;;24.23;24.95;99977.83;1783274;80;21577;-45
2022/09/02 10:41:25;;;;;;;24.70;15.40;;;;;;;24.15;25.56;99983.37;1779262;80;21214;-45
2022/09/02 10:44:25;;;;;;;24.02;16.50;;;;;;;24.07;26.14;99981.98;1783201;80;20933;-45
2022/09/02 10:47:03;;;;;;;23.65;15.43;;;;;;;24.21;26.09;99986.56;1783085;80;21015;-45
2022/09/02 10:49:52;;;;;;;21.75;15.32;;;;;;;24.34;27.02;99988.63;1783031;80;21023;-45
2022/09/02 10:52:25;;;;;;;22.27;14.98;;;;;;;24.48;26.29;99991.78;1783154;80;21091;-45
2022/09/02 10:55:41;;;;;;;21.33;14.95;;;;;;;24.70;26.14;99989.17;1778168;80;21388;-45
2022/09/02 10:58:13;;;;;;;17.20;11.73;;;;;;;24.92;26.03;99983.22;1782173;80;20992;-45
2022/09/02 11:00:41;;;;;;;15.48;11.15;;;;;;;25.21;25.24;99978.97;1781987;80;21051;-45
2022/09/02 11:03:30;;;;;;;16.37;10.48;;;;;;;25.51;24.36;99968.66;1782978;80;20960;-45
2022/09/02 11:06:12;;;;;;;15.88;10.18;;;;;;;25.90;24.83;99974.98;1759365;80;20985;-45
2022/09/02 11:08:51;;;;;;;9.75;7.53;;;;;;;26.27;24.27;99986.60;1782848;80;23098;-46
2022/09/02 11:11:39;;;;;;;10.10;7.58;;;;;;;26.36;22.83;99983.11;1783072;80;21526;-46
2022/09/02 11:14:34;;;;;;;11.57;7.97;;;;;;;26.24;22.76;99985.31;1783309;80;20924;-45
2022/09/02 11:17:34;;;;;;;11.45;7.72;;;;;;;26.06;22.95;99980.36;1783053;80;21019;-45
2022/09/02 11:20:25;;;;;;;11.05;7.33;;;;;;;25.88;22.75;99980.19;1783199;80;21072;-46
2022/09/02 11:23:00;;;;;;;12.65;7.92;;;;;;;25.61;23.09;99978.53;1760508;80;21295;-46
2022/09/02 11:26:06;;;;;;;14.55;9.00;;;;;;;25.68;23.39;99983.23;1783107;80;21321;-45
2022/09/02 11:28:47;;;;;;;13.98;9.28;;;;;;;26.13;25.07;99979.34;1783063;80;20956;-45
2022/09/02 11:31:49;;;;;;;11.90;8.38;;;;;;;26.60;23.97;99972.31;1783028;80;21040;-46
2022/09/02 11:34:36;;;;;;;12.78;8.93;;;;;;;26.89;23.94;99985.34;1783066;80;21111;-46
2022/09/02 11:37:05;;;;;;;12.15;8.68;;;;;;;26.90;21.96;99975.00;1782953;80;23160;-45
2022/09/02 11:39:45;;;;;;;;;;;;;;;26.75;23.08;99974.12;1785891;80;21015;-45
2022/09/02 11:42:23;;;;;;;11.60;7.80;;;;;;;26.94;23.40;99971.45;1783342;80;20166;-46
2022/09/02 11:45:17;;;;;;;11.57;8.30;;;;;;;27.21;23.47;99972.35;1783170;80;21087;-46
2022/09/02 11:48:10;;;;;;;11.80;7.80;;;;;;;27.51;21.85;99972.80;1777038;80;21064;-46